Etusivu
METAR-TAF:

METAR-TAF

Lentoasemat :

Lewis University Airport

Romeoville, Illinois, Yhdysvallat

Leveyspiiri: 41-36-30N, Pituuspiiri: 088-05-39W, korkeus merenpinnasta: 205 m

Tämänhetkinen sää

Tämä raportti tehtiin 25 minuuttia sitten, kello 20.15 UTC
Tuuli 3 kn idästä/kaakosta
Lämpötila 25°C
Kosteus 61%
Ilmanpaine 1013 hPa
Näkyvyys: 16.1 km
Hajanaisia pilviä 4100 ft:n korkeudessa

METAR: KLOT 182015Z AUTO 12003KT 10SM SCT041 25/17 A2991 RMK AO2 T02500172

Aika: 15:40 (20:40 UTC)


TAF: puuttuu

Säähavainnot ja -ennusteet yli 4000 lentoasemalta (METAR- ja TAF-raportit).

Käytössä olevat sääasemat on merkitty karttaan keltaisilla ja punaisilla pisteillä.

Aseta hiiri pisteen päälle nähdäksesi sääaseman nimen.

Klikkaa sitten nähdäksesi säähavainnot ja -ennusteet.

Kartan vaihtaminen: klikkaa mustalla rastilla varustettuja vihreitä pisteitä, niin voit zoomata sisään; viivalla varustettua vihreää pistettä, niin voit zoomata ulos tai vihreitä nuolia, niin pääset viereisille kartoille.


METAR-TAF: